sensor_id;sensor_type;location;lat;lon;timestamp;P1;durP1;ratioP1;P2;durP2;ratioP2
64110;SDS011;50401;48.188;11.566;2023-12-04T00:01:13;37.75;;;17.08;;
64110;SDS011;50401;48.188;11.566;2023-12-04T00:03:39;36.63;;;14.73;;
64110;SDS011;50401;48.188;11.566;2023-12-04T00:06:05;39.05;;;14.48;;
64110;SDS011;50401;48.188;11.566;2023-12-04T00:08:30;41.67;;;15.63;;
64110;SDS011;50401;48.188;11.566;2023-12-04T00:10:56;38.55;;;16.08;;
64110;SDS011;50401;48.188;11.566;2023-12-04T00:13:21;39.38;;;16.67;;
64110;SDS011;50401;48.188;11.566;2023-12-04T00:15:46;36.33;;;16.10;;
64110;SDS011;50401;48.188;11.566;2023-12-04T00:18:12;40.75;;;16.48;;
64110;SDS011;50401;48.188;11.566;2023-12-04T00:20:37;39.72;;;17.83;;
64110;SDS011;50401;48.188;11.566;2023-12-04T00:23:02;39.40;;;17.02;;
64110;SDS011;50401;48.188;11.566;2023-12-04T00:25:28;41.90;;;16.33;;
64110;SDS011;50401;48.188;11.566;2023-12-04T00:27:53;35.30;;;15.80;;
64110;SDS011;50401;48.188;11.566;2023-12-04T00:30:18;38.75;;;16.23;;
64110;SDS011;50401;48.188;11.566;2023-12-04T00:32:44;35.17;;;14.20;;
64110;SDS011;50401;48.188;11.566;2023-12-04T00:35:09;39.55;;;15.70;;
64110;SDS011;50401;48.188;11.566;2023-12-04T00:37:34;38.90;;;16.35;;
64110;SDS011;50401;48.188;11.566;2023-12-04T00:40:03;30.98;;;14.00;;
64110;SDS011;50401;48.188;11.566;2023-12-04T00:42:29;40.47;;;15.45;;
64110;SDS011;50401;48.188;11.566;2023-12-04T00:44:54;33.70;;;12.63;;
64110;SDS011;50401;48.188;11.566;2023-12-04T00:47:20;32.50;;;14.00;;
64110;SDS011;50401;48.188;11.566;2023-12-04T00:49:45;38.15;;;15.50;;
64110;SDS011;50401;48.188;11.566;2023-12-04T00:52:11;38.47;;;16.63;;
64110;SDS011;50401;48.188;11.566;2023-12-04T00:54:38;38.65;;;16.90;;
64110;SDS011;50401;48.188;11.566;2023-12-04T00:57:04;31.50;;;13.60;;
64110;SDS011;50401;48.188;11.566;2023-12-04T00:59:30;32.85;;;13.75;;
64110;SDS011;50401;48.188;11.566;2023-12-04T01:01:55;33.45;;;15.27;;
64110;SDS011;50401;48.188;11.566;2023-12-04T01:04:20;37.92;;;16.42;;
64110;SDS011;50401;48.188;11.566;2023-12-04T01:06:46;36.78;;;14.82;;
64110;SDS011;50401;48.188;11.566;2023-12-04T01:09:11;38.80;;;15.68;;
64110;SDS011;50401;48.188;11.566;2023-12-04T01:11:36;34.35;;;14.30;;
64110;SDS011;50401;48.188;11.566;2023-12-04T01:14:02;38.85;;;14.18;;
64110;SDS011;50401;48.188;11.566;2023-12-04T01:16:27;36.20;;;14.95;;
64110;SDS011;50401;48.188;11.566;2023-12-04T01:18:53;42.25;;;17.92;;
64110;SDS011;50401;48.188;11.566;2023-12-04T01:21:19;39.42;;;15.88;;
64110;SDS011;50401;48.188;11.566;2023-12-04T01:23:44;41.78;;;16.65;;
64110;SDS011;50401;48.188;11.566;2023-12-04T01:26:09;34.63;;;15.90;;
64110;SDS011;50401;48.188;11.566;2023-12-04T01:28:35;39.58;;;15.95;;
64110;SDS011;50401;48.188;11.566;2023-12-04T01:31:00;38.35;;;15.70;;
64110;SDS011;50401;48.188;11.566;2023-12-04T01:33:26;39.03;;;16.25;;
64110;SDS011;50401;48.188;11.566;2023-12-04T01:35:51;35.95;;;15.65;;
64110;SDS011;50401;48.188;11.566;2023-12-04T01:38:17;37.10;;;16.08;;
64110;SDS011;50401;48.188;11.566;2023-12-04T01:40:43;39.20;;;16.98;;
64110;SDS011;50401;48.188;11.566;2023-12-04T01:43:08;39.45;;;17.77;;
64110;SDS011;50401;48.188;11.566;2023-12-04T01:45:33;42.55;;;16.25;;
64110;SDS011;50401;48.188;11.566;2023-12-04T01:47:59;40.55;;;16.83;;
64110;SDS011;50401;48.188;11.566;2023-12-04T01:50:24;40.22;;;16.75;;
64110;SDS011;50401;48.188;11.566;2023-12-04T01:52:50;36.05;;;15.60;;
64110;SDS011;50401;48.188;11.566;2023-12-04T01:55:17;37.00;;;16.00;;
64110;SDS011;50401;48.188;11.566;2023-12-04T01:57:42;37.58;;;15.57;;
64110;SDS011;50401;48.188;11.566;2023-12-04T02:00:08;37.55;;;16.13;;
64110;SDS011;50401;48.188;11.566;2023-12-04T02:02:37;42.45;;;15.57;;
64110;SDS011;50401;48.188;11.566;2023-12-04T02:07:33;36.53;;;13.90;;
64110;SDS011;50401;48.188;11.566;2023-12-04T02:09:59;37.17;;;16.85;;
64110;SDS011;50401;48.188;11.566;2023-12-04T02:12:24;36.72;;;15.13;;
64110;SDS011;50401;48.188;11.566;2023-12-04T02:14:50;31.85;;;15.15;;
64110;SDS011;50401;48.188;11.566;2023-12-04T02:17:16;35.78;;;16.20;;
64110;SDS011;50401;48.188;11.566;2023-12-04T02:19:42;38.10;;;17.30;;
64110;SDS011;50401;48.188;11.566;2023-12-04T02:22:08;42.80;;;17.15;;
64110;SDS011;50401;48.188;11.566;2023-12-04T02:24:33;37.75;;;16.30;;
64110;SDS011;50401;48.188;11.566;2023-12-04T02:27:03;36.60;;;16.02;;
64110;SDS011;50401;48.188;11.566;2023-12-04T02:29:37;42.78;;;16.67;;
64110;SDS011;50401;48.188;11.566;2023-12-04T02:32:08;40.90;;;17.15;;
64110;SDS011;50401;48.188;11.566;2023-12-04T02:34:39;47.97;;;17.67;;
64110;SDS011;50401;48.188;11.566;2023-12-04T02:37:06;40.30;;;17.58;;
64110;SDS011;50401;48.188;11.566;2023-12-04T02:39:33;47.78;;;19.20;;
64110;SDS011;50401;48.188;11.566;2023-12-04T02:41:58;38.10;;;17.67;;
64110;SDS011;50401;48.188;11.566;2023-12-04T02:44:24;43.97;;;18.58;;
64110;SDS011;50401;48.188;11.566;2023-12-04T02:46:50;45.58;;;18.40;;
64110;SDS011;50401;48.188;11.566;2023-12-04T02:49:15;41.40;;;16.88;;
64110;SDS011;50401;48.188;11.566;2023-12-04T02:51:41;46.08;;;17.55;;
64110;SDS011;50401;48.188;11.566;2023-12-04T02:54:07;43.80;;;16.33;;
64110;SDS011;50401;48.188;11.566;2023-12-04T02:56:32;44.38;;;17.75;;
64110;SDS011;50401;48.188;11.566;2023-12-04T02:58:57;42.95;;;16.98;;
64110;SDS011;50401;48.188;11.566;2023-12-04T03:01:23;40.53;;;17.65;;
64110;SDS011;50401;48.188;11.566;2023-12-04T03:03:48;39.60;;;16.85;;
64110;SDS011;50401;48.188;11.566;2023-12-04T03:06:13;35.33;;;16.50;;
64110;SDS011;50401;48.188;11.566;2023-12-04T03:08:41;43.47;;;17.48;;
64110;SDS011;50401;48.188;11.566;2023-12-04T03:11:07;44.97;;;18.63;;
64110;SDS011;50401;48.188;11.566;2023-12-04T03:13:33;40.22;;;17.83;;
64110;SDS011;50401;48.188;11.566;2023-12-04T03:15:59;44.30;;;17.90;;
64110;SDS011;50401;48.188;11.566;2023-12-04T03:18:24;36.45;;;16.73;;
64110;SDS011;50401;48.188;11.566;2023-12-04T03:20:50;41.10;;;17.50;;
64110;SDS011;50401;48.188;11.566;2023-12-04T03:23:16;44.65;;;18.75;;
64110;SDS011;50401;48.188;11.566;2023-12-04T03:25:41;39.75;;;17.42;;
64110;SDS011;50401;48.188;11.566;2023-12-04T03:28:07;37.53;;;16.35;;
64110;SDS011;50401;48.188;11.566;2023-12-04T03:30:32;45.22;;;16.15;;
64110;SDS011;50401;48.188;11.566;2023-12-04T03:32:58;41.30;;;16.95;;
64110;SDS011;50401;48.188;11.566;2023-12-04T03:35:23;43.38;;;17.15;;
64110;SDS011;50401;48.188;11.566;2023-12-04T03:37:48;35.63;;;16.10;;
64110;SDS011;50401;48.188;11.566;2023-12-04T03:40:16;38.15;;;15.73;;
64110;SDS011;50401;48.188;11.566;2023-12-04T03:42:42;40.88;;;17.30;;
64110;SDS011;50401;48.188;11.566;2023-12-04T03:45:07;38.78;;;17.23;;
64110;SDS011;50401;48.188;11.566;2023-12-04T03:47:33;34.28;;;14.82;;
64110;SDS011;50401;48.188;11.566;2023-12-04T03:49:58;41.25;;;16.45;;
64110;SDS011;50401;48.188;11.566;2023-12-04T03:52:24;33.88;;;14.80;;
64110;SDS011;50401;48.188;11.566;2023-12-04T03:54:49;31.95;;;15.23;;
64110;SDS011;50401;48.188;11.566;2023-12-04T03:57:14;41.03;;;16.85;;
64110;SDS011;50401;48.188;11.566;2023-12-04T03:59:40;39.47;;;15.88;;
64110;SDS011;50401;48.188;11.566;2023-12-04T04:02:05;39.53;;;15.52;;
64110;SDS011;50401;48.188;11.566;2023-12-04T04:04:30;40.42;;;16.65;;
64110;SDS011;50401;48.188;11.566;2023-12-04T04:06:56;31.27;;;14.27;;
64110;SDS011;50401;48.188;11.566;2023-12-04T04:09:21;43.25;;;17.83;;
64110;SDS011;50401;48.188;11.566;2023-12-04T04:11:47;33.92;;;15.27;;
64110;SDS011;50401;48.188;11.566;2023-12-04T04:14:12;32.58;;;15.18;;
64110;SDS011;50401;48.188;11.566;2023-12-04T04:16:38;45.78;;;15.82;;
64110;SDS011;50401;48.188;11.566;2023-12-04T04:19:03;38.00;;;15.63;;
64110;SDS011;50401;48.188;11.566;2023-12-04T04:21:28;33.08;;;15.77;;
64110;SDS011;50401;48.188;11.566;2023-12-04T04:23:54;34.10;;;14.73;;
64110;SDS011;50401;48.188;11.566;2023-12-04T04:26:19;33.83;;;12.98;;
64110;SDS011;50401;48.188;11.566;2023-12-04T04:28:44;28.10;;;13.50;;
64110;SDS011;50401;48.188;11.566;2023-12-04T04:31:10;33.10;;;13.90;;
64110;SDS011;50401;48.188;11.566;2023-12-04T04:33:35;29.70;;;13.52;;
64110;SDS011;50401;48.188;11.566;2023-12-04T04:36:00;35.63;;;16.30;;
64110;SDS011;50401;48.188;11.566;2023-12-04T04:38:26;51.45;;;20.98;;
64110;SDS011;50401;48.188;11.566;2023-12-04T04:40:51;35.00;;;14.48;;
64110;SDS011;50401;48.188;11.566;2023-12-04T04:43:17;44.85;;;18.45;;
64110;SDS011;50401;48.188;11.566;2023-12-04T04:45:44;30.52;;;14.27;;
64110;SDS011;50401;48.188;11.566;2023-12-04T04:48:10;37.67;;;14.27;;
64110;SDS011;50401;48.188;11.566;2023-12-04T04:50:35;39.50;;;16.83;;
64110;SDS011;50401;48.188;11.566;2023-12-04T04:53:00;36.65;;;14.13;;
64110;SDS011;50401;48.188;11.566;2023-12-04T04:55:26;25.85;;;11.63;;
64110;SDS011;50401;48.188;11.566;2023-12-04T04:57:51;30.52;;;14.77;;
64110;SDS011;50401;48.188;11.566;2023-12-04T05:00:17;27.95;;;12.10;;
64110;SDS011;50401;48.188;11.566;2023-12-04T05:02:42;28.58;;;12.98;;
64110;SDS011;50401;48.188;11.566;2023-12-04T05:05:08;29.05;;;13.00;;
64110;SDS011;50401;48.188;11.566;2023-12-04T05:07:33;35.03;;;15.23;;
64110;SDS011;50401;48.188;11.566;2023-12-04T05:09:58;31.20;;;13.75;;
64110;SDS011;50401;48.188;11.566;2023-12-04T05:12:24;27.45;;;12.73;;
64110;SDS011;50401;48.188;11.566;2023-12-04T05:14:49;36.60;;;12.65;;
64110;SDS011;50401;48.188;11.566;2023-12-04T05:17:15;32.38;;;13.07;;
64110;SDS011;50401;48.188;11.566;2023-12-04T05:19:40;23.08;;;11.77;;
64110;SDS011;50401;48.188;11.566;2023-12-04T05:22:05;28.42;;;12.80;;
64110;SDS011;50401;48.188;11.566;2023-12-04T05:24:31;31.13;;;12.93;;
64110;SDS011;50401;48.188;11.566;2023-12-04T05:26:57;29.75;;;12.75;;
64110;SDS011;50401;48.188;11.566;2023-12-04T05:29:23;34.28;;;13.65;;
64110;SDS011;50401;48.188;11.566;2023-12-04T05:31:48;28.70;;;12.68;;
64110;SDS011;50401;48.188;11.566;2023-12-04T05:34:14;25.45;;;11.35;;
64110;SDS011;50401;48.188;11.566;2023-12-04T05:36:39;40.10;;;14.05;;
64110;SDS011;50401;48.188;11.566;2023-12-04T05:39:04;29.92;;;12.23;;
64110;SDS011;50401;48.188;11.566;2023-12-04T05:41:30;27.98;;;13.18;;
64110;SDS011;50401;48.188;11.566;2023-12-04T05:43:55;38.75;;;15.20;;
64110;SDS011;50401;48.188;11.566;2023-12-04T05:46:21;27.88;;;12.48;;
64110;SDS011;50401;48.188;11.566;2023-12-04T05:48:47;31.48;;;13.95;;
64110;SDS011;50401;48.188;11.566;2023-12-04T05:51:12;28.58;;;13.05;;
64110;SDS011;50401;48.188;11.566;2023-12-04T05:53:39;30.10;;;12.68;;
64110;SDS011;50401;48.188;11.566;2023-12-04T05:56:04;28.67;;;12.50;;
64110;SDS011;50401;48.188;11.566;2023-12-04T05:58:30;27.20;;;12.07;;
64110;SDS011;50401;48.188;11.566;2023-12-04T06:00:55;30.63;;;12.70;;
64110;SDS011;50401;48.188;11.566;2023-12-04T06:03:21;32.47;;;12.32;;
64110;SDS011;50401;48.188;11.566;2023-12-04T06:05:46;39.22;;;14.07;;
64110;SDS011;50401;48.188;11.566;2023-12-04T06:08:12;38.83;;;13.32;;
64110;SDS011;50401;48.188;11.566;2023-12-04T06:10:37;26.80;;;13.13;;
64110;SDS011;50401;48.188;11.566;2023-12-04T06:13:02;32.35;;;12.82;;
64110;SDS011;50401;48.188;11.566;2023-12-04T06:15:28;33.13;;;14.63;;
64110;SDS011;50401;48.188;11.566;2023-12-04T06:17:53;32.88;;;15.10;;
64110;SDS011;50401;48.188;11.566;2023-12-04T06:20:19;35.28;;;15.02;;
64110;SDS011;50401;48.188;11.566;2023-12-04T06:22:44;31.58;;;14.75;;
64110;SDS011;50401;48.188;11.566;2023-12-04T06:25:10;37.03;;;14.48;;
64110;SDS011;50401;48.188;11.566;2023-12-04T06:27:36;27.83;;;13.05;;
64110;SDS011;50401;48.188;11.566;2023-12-04T06:30:03;28.25;;;13.65;;
64110;SDS011;50401;48.188;11.566;2023-12-04T06:32:30;35.83;;;15.15;;
64110;SDS011;50401;48.188;11.566;2023-12-04T06:34:56;36.70;;;13.77;;
64110;SDS011;50401;48.188;11.566;2023-12-04T06:37:21;29.35;;;12.38;;
64110;SDS011;50401;48.188;11.566;2023-12-04T06:39:47;30.35;;;13.23;;
64110;SDS011;50401;48.188;11.566;2023-12-04T06:42:14;28.30;;;12.88;;
64110;SDS011;50401;48.188;11.566;2023-12-04T06:44:40;29.27;;;12.95;;
64110;SDS011;50401;48.188;11.566;2023-12-04T06:47:07;30.85;;;13.60;;
64110;SDS011;50401;48.188;11.566;2023-12-04T06:49:33;28.67;;;12.60;;
64110;SDS011;50401;48.188;11.566;2023-12-04T06:51:59;30.13;;;12.93;;
64110;SDS011;50401;48.188;11.566;2023-12-04T06:54:25;25.30;;;11.20;;
64110;SDS011;50401;48.188;11.566;2023-12-04T06:56:51;26.75;;;11.55;;
64110;SDS011;50401;48.188;11.566;2023-12-04T06:59:20;25.38;;;11.93;;
64110;SDS011;50401;48.188;11.566;2023-12-04T07:01:45;24.27;;;11.20;;
64110;SDS011;50401;48.188;11.566;2023-12-04T07:04:11;29.52;;;11.55;;
64110;SDS011;50401;48.188;11.566;2023-12-04T07:06:38;25.40;;;12.65;;
64110;SDS011;50401;48.188;11.566;2023-12-04T07:09:05;29.17;;;13.32;;
64110;SDS011;50401;48.188;11.566;2023-12-04T07:11:32;35.85;;;13.20;;
64110;SDS011;50401;48.188;11.566;2023-12-04T07:13:58;27.02;;;11.15;;
64110;SDS011;50401;48.188;11.566;2023-12-04T07:16:24;29.67;;;11.60;;
64110;SDS011;50401;48.188;11.566;2023-12-04T07:18:49;27.63;;;11.98;;
64110;SDS011;50401;48.188;11.566;2023-12-04T07:21:14;32.58;;;13.30;;
64110;SDS011;50401;48.188;11.566;2023-12-04T07:23:40;29.83;;;13.05;;
64110;SDS011;50401;48.188;11.566;2023-12-04T07:26:05;29.73;;;13.52;;
64110;SDS011;50401;48.188;11.566;2023-12-04T07:28:31;29.10;;;12.95;;
64110;SDS011;50401;48.188;11.566;2023-12-04T07:30:57;35.25;;;12.50;;
64110;SDS011;50401;48.188;11.566;2023-12-04T07:33:22;29.65;;;13.90;;
64110;SDS011;50401;48.188;11.566;2023-12-04T07:35:48;33.63;;;14.32;;
64110;SDS011;50401;48.188;11.566;2023-12-04T07:38:13;30.80;;;13.27;;
64110;SDS011;50401;48.188;11.566;2023-12-04T07:40:38;31.70;;;12.98;;
64110;SDS011;50401;48.188;11.566;2023-12-04T07:43:04;32.65;;;13.88;;
64110;SDS011;50401;48.188;11.566;2023-12-04T07:45:29;40.97;;;13.93;;
64110;SDS011;50401;48.188;11.566;2023-12-04T07:47:55;33.63;;;14.13;;
64110;SDS011;50401;48.188;11.566;2023-12-04T07:50:20;27.42;;;13.63;;
64110;SDS011;50401;48.188;11.566;2023-12-04T07:52:46;34.72;;;14.23;;
64110;SDS011;50401;48.188;11.566;2023-12-04T07:55:11;30.48;;;13.95;;
64110;SDS011;50401;48.188;11.566;2023-12-04T07:57:36;27.73;;;12.82;;
64110;SDS011;50401;48.188;11.566;2023-12-04T08:00:02;31.52;;;14.15;;
64110;SDS011;50401;48.188;11.566;2023-12-04T08:02:28;31.23;;;13.25;;
64110;SDS011;50401;48.188;11.566;2023-12-04T08:04:53;32.15;;;13.77;;
64110;SDS011;50401;48.188;11.566;2023-12-04T08:07:19;28.80;;;13.07;;
64110;SDS011;50401;48.188;11.566;2023-12-04T08:09:44;25.23;;;11.70;;
64110;SDS011;50401;48.188;11.566;2023-12-04T08:12:09;27.90;;;11.57;;
64110;SDS011;50401;48.188;11.566;2023-12-04T08:14:35;30.63;;;13.27;;
64110;SDS011;50401;48.188;11.566;2023-12-04T08:17:00;27.27;;;12.40;;
64110;SDS011;50401;48.188;11.566;2023-12-04T08:19:26;26.45;;;11.68;;
64110;SDS011;50401;48.188;11.566;2023-12-04T08:21:51;30.33;;;12.23;;
64110;SDS011;50401;48.188;11.566;2023-12-04T08:24:16;25.70;;;11.40;;
64110;SDS011;50401;48.188;11.566;2023-12-04T08:26:44;28.45;;;11.90;;
64110;SDS011;50401;48.188;11.566;2023-12-04T08:29:10;32.08;;;13.07;;
64110;SDS011;50401;48.188;11.566;2023-12-04T08:31:36;29.65;;;12.13;;
64110;SDS011;50401;48.188;11.566;2023-12-04T08:34:02;36.90;;;13.25;;
64110;SDS011;50401;48.188;11.566;2023-12-04T08:36:27;28.88;;;12.82;;
64110;SDS011;50401;48.188;11.566;2023-12-04T08:38:52;35.55;;;14.00;;
64110;SDS011;50401;48.188;11.566;2023-12-04T08:41:18;32.22;;;12.52;;
64110;SDS011;50401;48.188;11.566;2023-12-04T08:43:43;27.77;;;12.90;;
64110;SDS011;50401;48.188;11.566;2023-12-04T08:46:11;34.38;;;13.18;;
64110;SDS011;50401;48.188;11.566;2023-12-04T08:51:03;32.40;;;13.27;;
64110;SDS011;50401;48.188;11.566;2023-12-04T08:53:29;32.92;;;14.38;;
64110;SDS011;50401;48.188;11.566;2023-12-04T08:55:54;31.75;;;13.20;;
64110;SDS011;50401;48.188;11.566;2023-12-04T08:58:20;33.47;;;14.90;;
64110;SDS011;50401;48.188;11.566;2023-12-04T09:00:45;36.67;;;13.13;;
64110;SDS011;50401;48.188;11.566;2023-12-04T09:03:10;34.65;;;14.90;;
64110;SDS011;50401;48.188;11.566;2023-12-04T09:05:36;34.33;;;14.13;;
64110;SDS011;50401;48.188;11.566;2023-12-04T09:08:02;34.10;;;14.45;;
64110;SDS011;50401;48.188;11.566;2023-12-04T09:10:28;46.25;;;15.25;;
64110;SDS011;50401;48.188;11.566;2023-12-04T09:12:53;44.40;;;18.45;;
64110;SDS011;50401;48.188;11.566;2023-12-04T09:15:19;48.67;;;19.58;;
64110;SDS011;50401;48.188;11.566;2023-12-04T09:17:45;50.28;;;20.55;;
64110;SDS011;50401;48.188;11.566;2023-12-04T09:20:10;49.03;;;19.98;;
64110;SDS011;50401;48.188;11.566;2023-12-04T09:22:36;52.83;;;21.33;;
64110;SDS011;50401;48.188;11.566;2023-12-04T09:25:05;54.58;;;20.52;;
64110;SDS011;50401;48.188;11.566;2023-12-04T09:27:30;47.90;;;20.05;;
64110;SDS011;50401;48.188;11.566;2023-12-04T09:29:56;55.25;;;21.00;;
64110;SDS011;50401;48.188;11.566;2023-12-04T09:32:21;56.92;;;21.85;;
64110;SDS011;50401;48.188;11.566;2023-12-04T09:34:46;54.85;;;22.17;;
64110;SDS011;50401;48.188;11.566;2023-12-04T09:37:12;57.45;;;21.30;;
64110;SDS011;50401;48.188;11.566;2023-12-04T09:39:39;56.60;;;20.73;;
64110;SDS011;50401;48.188;11.566;2023-12-04T09:42:04;72.07;;;23.52;;
64110;SDS011;50401;48.188;11.566;2023-12-04T09:44:30;52.38;;;22.17;;
64110;SDS011;50401;48.188;11.566;2023-12-04T09:46:57;57.22;;;21.85;;
64110;SDS011;50401;48.188;11.566;2023-12-04T09:49:24;54.45;;;21.45;;
64110;SDS011;50401;48.188;11.566;2023-12-04T09:51:53;59.33;;;21.42;;
64110;SDS011;50401;48.188;11.566;2023-12-04T09:54:18;54.25;;;21.17;;
64110;SDS011;50401;48.188;11.566;2023-12-04T09:56:44;55.85;;;22.17;;
64110;SDS011;50401;48.188;11.566;2023-12-04T09:59:10;62.83;;;22.45;;
64110;SDS011;50401;48.188;11.566;2023-12-04T10:01:38;54.42;;;21.73;;
64110;SDS011;50401;48.188;11.566;2023-12-04T10:04:05;51.22;;;21.67;;
64110;SDS011;50401;48.188;11.566;2023-12-04T10:06:31;53.53;;;21.52;;
64110;SDS011;50401;48.188;11.566;2023-12-04T10:08:57;58.40;;;23.60;;
64110;SDS011;50401;48.188;11.566;2023-12-04T10:11:26;54.38;;;23.42;;
64110;SDS011;50401;48.188;11.566;2023-12-04T10:13:55;61.95;;;22.75;;
64110;SDS011;50401;48.188;11.566;2023-12-04T10:16:36;63.22;;;23.40;;
64110;SDS011;50401;48.188;11.566;2023-12-04T10:19:21;59.67;;;22.33;;
64110;SDS011;50401;48.188;11.566;2023-12-04T10:21:58;57.40;;;22.60;;
64110;SDS011;50401;48.188;11.566;2023-12-04T10:24:27;50.33;;;20.38;;
64110;SDS011;50401;48.188;11.566;2023-12-04T10:26:53;59.63;;;22.88;;
64110;SDS011;50401;48.188;11.566;2023-12-04T10:29:18;63.80;;;23.38;;
64110;SDS011;50401;48.188;11.566;2023-12-04T10:31:44;57.13;;;21.20;;
64110;SDS011;50401;48.188;11.566;2023-12-04T10:34:09;60.47;;;21.67;;
64110;SDS011;50401;48.188;11.566;2023-12-04T10:36:35;47.63;;;20.42;;
64110;SDS011;50401;48.188;11.566;2023-12-04T10:39:01;54.47;;;21.70;;
64110;SDS011;50401;48.188;11.566;2023-12-04T10:41:30;62.20;;;22.20;;
64110;SDS011;50401;48.188;11.566;2023-12-04T10:43:56;57.83;;;22.05;;
64110;SDS011;50401;48.188;11.566;2023-12-04T10:46:23;52.38;;;21.65;;
64110;SDS011;50401;48.188;11.566;2023-12-04T10:48:49;55.78;;;21.33;;
64110;SDS011;50401;48.188;11.566;2023-12-04T10:51:15;53.58;;;21.95;;
64110;SDS011;50401;48.188;11.566;2023-12-04T10:53:42;54.60;;;22.63;;
64110;SDS011;50401;48.188;11.566;2023-12-04T10:56:14;53.38;;;23.42;;
64110;SDS011;50401;48.188;11.566;2023-12-04T10:58:44;59.88;;;22.60;;
64110;SDS011;50401;48.188;11.566;2023-12-04T11:01:15;59.95;;;23.90;;
64110;SDS011;50401;48.188;11.566;2023-12-04T11:03:47;60.75;;;24.17;;
64110;SDS011;50401;48.188;11.566;2023-12-04T11:06:14;58.28;;;23.67;;
64110;SDS011;50401;48.188;11.566;2023-12-04T11:08:42;51.25;;;22.98;;
64110;SDS011;50401;48.188;11.566;2023-12-04T11:11:10;56.97;;;24.70;;
64110;SDS011;50401;48.188;11.566;2023-12-04T11:13:40;55.63;;;22.77;;
64110;SDS011;50401;48.188;11.566;2023-12-04T11:19:03;57.13;;;22.05;;
64110;SDS011;50401;48.188;11.566;2023-12-04T11:21:30;67.93;;;23.42;;
64110;SDS011;50401;48.188;11.566;2023-12-04T11:23:57;64.25;;;23.73;;
64110;SDS011;50401;48.188;11.566;2023-12-04T11:26:23;70.32;;;24.20;;
64110;SDS011;50401;48.188;11.566;2023-12-04T11:28:50;64.00;;;27.20;;
64110;SDS011;50401;48.188;11.566;2023-12-04T11:31:16;57.60;;;24.67;;
64110;SDS011;50401;48.188;11.566;2023-12-04T11:33:42;63.45;;;23.98;;
64110;SDS011;50401;48.188;11.566;2023-12-04T11:41:20;59.08;;;23.00;;
64110;SDS011;50401;48.188;11.566;2023-12-04T11:43:47;61.85;;;23.70;;
64110;SDS011;50401;48.188;11.566;2023-12-04T11:46:13;68.50;;;24.17;;
64110;SDS011;50401;48.188;11.566;2023-12-04T11:48:50;61.25;;;24.60;;
64110;SDS011;50401;48.188;11.566;2023-12-04T11:54:17;65.65;;;25.52;;
64110;SDS011;50401;48.188;11.566;2023-12-04T11:59:36;66.63;;;23.50;;
64110;SDS011;50401;48.188;11.566;2023-12-04T12:02:02;62.75;;;26.80;;
64110;SDS011;50401;48.188;11.566;2023-12-04T12:04:32;63.25;;;24.55;;
64110;SDS011;50401;48.188;11.566;2023-12-04T12:06:57;69.32;;;24.90;;
64110;SDS011;50401;48.188;11.566;2023-12-04T12:09:23;67.78;;;27.13;;
64110;SDS011;50401;48.188;11.566;2023-12-04T12:11:48;82.32;;;28.52;;
64110;SDS011;50401;48.188;11.566;2023-12-04T12:14:14;73.35;;;28.83;;
64110;SDS011;50401;48.188;11.566;2023-12-04T12:16:39;77.07;;;28.30;;
64110;SDS011;50401;48.188;11.566;2023-12-04T12:19:05;76.25;;;28.42;;
64110;SDS011;50401;48.188;11.566;2023-12-04T12:21:30;70.63;;;27.73;;
64110;SDS011;50401;48.188;11.566;2023-12-04T12:23:55;74.13;;;30.50;;
64110;SDS011;50401;48.188;11.566;2023-12-04T12:26:21;66.05;;;28.80;;
64110;SDS011;50401;48.188;11.566;2023-12-04T12:28:46;70.05;;;30.58;;
64110;SDS011;50401;48.188;11.566;2023-12-04T12:31:12;66.95;;;29.75;;
64110;SDS011;50401;48.188;11.566;2023-12-04T12:33:37;65.78;;;28.77;;
64110;SDS011;50401;48.188;11.566;2023-12-04T12:36:03;69.93;;;30.65;;
64110;SDS011;50401;48.188;11.566;2023-12-04T12:38:29;69.53;;;28.52;;
64110;SDS011;50401;48.188;11.566;2023-12-04T12:40:59;65.53;;;28.20;;
64110;SDS011;50401;48.188;11.566;2023-12-04T12:43:27;74.40;;;26.98;;
64110;SDS011;50401;48.188;11.566;2023-12-04T12:45:52;61.20;;;26.67;;
64110;SDS011;50401;48.188;11.566;2023-12-04T12:48:18;77.47;;;28.35;;
64110;SDS011;50401;48.188;11.566;2023-12-04T12:50:43;71.85;;;29.23;;
64110;SDS011;50401;48.188;11.566;2023-12-04T12:53:11;71.20;;;28.17;;
64110;SDS011;50401;48.188;11.566;2023-12-04T12:55:43;75.68;;;28.73;;
64110;SDS011;50401;48.188;11.566;2023-12-04T12:58:12;64.65;;;27.10;;
64110;SDS011;50401;48.188;11.566;2023-12-04T13:00:45;67.05;;;26.77;;
64110;SDS011;50401;48.188;11.566;2023-12-04T13:03:15;67.00;;;26.92;;
64110;SDS011;50401;48.188;11.566;2023-12-04T13:05:42;68.30;;;27.33;;
64110;SDS011;50401;48.188;11.566;2023-12-04T13:08:07;61.17;;;27.70;;
64110;SDS011;50401;48.188;11.566;2023-12-04T13:10:32;70.00;;;28.10;;
64110;SDS011;50401;48.188;11.566;2023-12-04T13:12:58;62.97;;;26.85;;
64110;SDS011;50401;48.188;11.566;2023-12-04T13:15:25;67.43;;;26.92;;
64110;SDS011;50401;48.188;11.566;2023-12-04T13:17:50;68.03;;;26.73;;
64110;SDS011;50401;48.188;11.566;2023-12-04T13:20:16;65.28;;;26.55;;
64110;SDS011;50401;48.188;11.566;2023-12-04T13:22:42;72.10;;;26.92;;
64110;SDS011;50401;48.188;11.566;2023-12-04T13:25:07;71.93;;;27.00;;
64110;SDS011;50401;48.188;11.566;2023-12-04T13:27:35;62.55;;;26.50;;
64110;SDS011;50401;48.188;11.566;2023-12-04T13:30:06;78.28;;;27.38;;
64110;SDS011;50401;48.188;11.566;2023-12-04T13:32:33;62.63;;;28.45;;
64110;SDS011;50401;48.188;11.566;2023-12-04T13:34:59;84.97;;;26.42;;
64110;SDS011;50401;48.188;11.566;2023-12-04T13:37:25;60.70;;;26.73;;
64110;SDS011;50401;48.188;11.566;2023-12-04T13:39:53;58.42;;;25.42;;
64110;SDS011;50401;48.188;11.566;2023-12-04T13:42:23;59.47;;;25.40;;
64110;SDS011;50401;48.188;11.566;2023-12-04T13:45:08;76.53;;;25.60;;
64110;SDS011;50401;48.188;11.566;2023-12-04T13:47:37;72.28;;;26.85;;
64110;SDS011;50401;48.188;11.566;2023-12-04T13:50:04;72.40;;;26.95;;
64110;SDS011;50401;48.188;11.566;2023-12-04T13:52:31;67.85;;;26.75;;
64110;SDS011;50401;48.188;11.566;2023-12-04T13:54:59;63.55;;;26.20;;
64110;SDS011;50401;48.188;11.566;2023-12-04T13:57:25;62.53;;;26.83;;
64110;SDS011;50401;48.188;11.566;2023-12-04T13:59:58;55.55;;;23.92;;
64110;SDS011;50401;48.188;11.566;2023-12-04T14:02:24;54.40;;;23.05;;
64110;SDS011;50401;48.188;11.566;2023-12-04T14:04:50;60.92;;;23.92;;
64110;SDS011;50401;48.188;11.566;2023-12-04T14:07:15;66.43;;;25.05;;
64110;SDS011;50401;48.188;11.566;2023-12-04T14:09:41;50.42;;;22.58;;
64110;SDS011;50401;48.188;11.566;2023-12-04T14:12:07;48.70;;;22.05;;
64110;SDS011;50401;48.188;11.566;2023-12-04T14:14:32;48.80;;;21.35;;
64110;SDS011;50401;48.188;11.566;2023-12-04T14:17:02;45.92;;;20.65;;
64110;SDS011;50401;48.188;11.566;2023-12-04T14:19:29;58.05;;;21.38;;
64110;SDS011;50401;48.188;11.566;2023-12-04T14:21:55;53.30;;;20.08;;